createdAt,value
2018-09-17T00:01:06.946Z,11.32
2018-09-17T00:06:04.358Z,11.14
2018-09-17T00:11:01.823Z,11.03
2018-09-17T00:15:59.243Z,11.05
2018-09-17T00:20:56.666Z,10.86
2018-09-17T00:25:54.151Z,10.84
2018-09-17T00:30:53.316Z,11.61
2018-09-17T00:35:50.803Z,11.15
2018-09-17T00:40:48.235Z,10.85
2018-09-17T00:45:45.660Z,11.21
2018-09-17T00:50:43.038Z,11.43
2018-09-17T00:55:40.426Z,10.76
2018-09-17T01:00:37.861Z,10.60
2018-09-17T01:05:35.336Z,11.06
2018-09-17T01:10:32.749Z,11.06
2018-09-17T01:15:30.115Z,10.79
2018-09-17T01:20:27.599Z,10.43
2018-09-17T01:25:24.986Z,10.43
2018-09-17T01:30:22.398Z,10.40
2018-09-17T01:35:19.794Z,10.43
2018-09-17T01:40:17.211Z,11.12
2018-09-17T01:45:14.654Z,10.38
2018-09-17T01:50:12.025Z,10.25
2018-09-17T01:55:09.426Z,10.88
2018-09-17T02:00:06.859Z,10.22
2018-09-17T02:05:04.350Z,10.25
2018-09-17T02:10:02.899Z,10.31
2018-09-17T02:15:00.302Z,10.82
2018-09-17T02:19:57.698Z,10.28
2018-09-17T02:24:55.144Z,10.25
2018-09-17T02:29:52.548Z,10.09
2018-09-17T02:34:49.918Z,10.14
2018-09-17T02:39:56.610Z,10.18
2018-09-17T02:44:53.995Z,10.83
2018-09-17T02:49:51.406Z,10.27
2018-09-17T02:54:48.793Z,10.66
2018-09-17T02:59:46.173Z,10.11
2018-09-17T03:04:43.552Z,9.88
2018-09-17T03:09:55.839Z,9.90
2018-09-17T03:14:54.259Z,10.24
2018-09-17T03:19:51.655Z,10.46
2018-09-17T03:24:49.107Z,10.55
2018-09-17T03:29:46.471Z,10.59
2018-09-17T03:34:43.939Z,10.73
2018-09-17T03:39:46.788Z,10.33
2018-09-17T03:44:44.226Z,10.20
2018-09-17T03:49:41.632Z,9.97
2018-09-17T03:54:39.027Z,10.40
2018-09-17T03:59:36.398Z,9.99
2018-09-17T04:04:33.782Z,10.41
2018-09-17T04:09:43.867Z,10.31
2018-09-17T04:14:41.308Z,10.08
2018-09-17T04:19:38.761Z,9.84
2018-09-17T04:24:36.151Z,9.77
2018-09-17T04:29:33.535Z,9.56
2018-09-17T04:34:30.918Z,10.09
2018-09-17T04:39:32.542Z,9.88
2018-09-17T04:44:29.936Z,9.57
2018-09-17T04:49:27.332Z,9.49
2018-09-17T04:54:24.724Z,10.24
2018-09-17T04:59:22.127Z,10.31
2018-09-17T05:04:19.539Z,10.26
2018-09-17T05:09:16.999Z,10.41
2018-09-17T05:14:14.383Z,10.37
2018-09-17T05:19:11.793Z,10.03
2018-09-17T05:24:09.279Z,10.72
2018-09-17T05:29:06.741Z,12.58
2018-09-17T05:34:04.167Z,13.74
2018-09-17T05:39:01.583Z,13.23
2018-09-17T05:43:58.979Z,12.50
2018-09-17T05:48:56.407Z,12.28
2018-09-17T05:53:53.858Z,12.31
2018-09-17T05:58:52.046Z,12.42
2018-09-17T06:03:49.462Z,12.97
2018-09-17T06:08:46.886Z,13.84
2018-09-17T06:13:44.298Z,14.99
2018-09-17T06:18:41.676Z,16.37
2018-09-17T06:23:39.076Z,15.22
2018-09-17T06:28:36.519Z,14.71
2018-09-17T06:33:33.905Z,14.50
2018-09-17T06:38:31.295Z,14.32
2018-09-17T06:43:28.662Z,14.46
2018-09-17T06:48:26.062Z,14.53
2018-09-17T06:53:23.464Z,14.69
2018-09-17T06:58:20.854Z,14.61
2018-09-17T07:03:18.242Z,14.94
2018-09-17T07:08:15.654Z,15.29
2018-09-17T07:13:13.079Z,15.46
2018-09-17T07:18:10.515Z,15.68
2018-09-17T07:23:07.894Z,16.10
2018-09-17T07:28:05.361Z,16.70
2018-09-17T07:33:02.732Z,17.22
2018-09-17T07:38:00.139Z,17.74
2018-09-17T07:42:57.547Z,18.19
2018-09-17T07:47:54.981Z,18.48
2018-09-17T07:52:52.384Z,18.96
2018-09-17T07:57:49.818Z,19.14
2018-09-17T08:02:47.303Z,19.63
2018-09-17T08:07:44.797Z,19.15
2018-09-17T08:12:42.222Z,19.40
2018-09-17T08:17:39.628Z,19.58
2018-09-17T08:22:37.030Z,19.65
2018-09-17T08:27:34.528Z,20.31
2018-09-17T08:32:32.006Z,20.49
2018-09-17T08:37:29.407Z,20.74
2018-09-17T08:42:26.827Z,20.32
2018-09-17T08:47:24.326Z,21.25
2018-09-17T08:52:22.027Z,21.50
2018-09-17T08:57:26.084Z,21.31
2018-09-17T09:02:29.002Z,21.68
2018-09-17T09:07:35.612Z,22.03
2018-09-17T09:12:39.374Z,21.72
2018-09-17T09:17:36.752Z,21.99
2018-09-17T09:22:34.180Z,22.19
2018-09-17T09:27:31.574Z,21.87
2018-09-17T09:32:28.974Z,22.40
2018-09-17T09:37:26.353Z,23.08
2018-09-17T09:42:23.759Z,23.10
2018-09-17T09:47:21.159Z,22.51
2018-09-17T09:52:18.542Z,21.99
2018-09-17T09:57:15.916Z,22.95
2018-09-17T10:02:18.852Z,22.21
2018-09-17T10:07:16.255Z,22.55
2018-09-17T10:12:19.325Z,22.96
2018-09-17T10:17:22.403Z,23.24
2018-09-17T10:22:21.050Z,23.92
2018-09-17T10:27:18.710Z,24.26
2018-09-17T10:32:16.106Z,23.85
2018-09-17T10:37:13.510Z,23.62
2018-09-17T10:42:10.914Z,24.10
2018-09-17T10:47:09.009Z,24.01
2018-09-17T10:52:06.470Z,24.26
2018-09-17T10:57:03.939Z,24.12
2018-09-17T11:02:01.358Z,24.93
2018-09-17T11:06:58.782Z,25.12
2018-09-17T11:11:56.233Z,24.40
2018-09-17T11:16:53.670Z,24.79
2018-09-17T11:21:51.079Z,25.28
2018-09-17T11:26:48.526Z,24.54
2018-09-17T11:31:46.332Z,24.38
2018-09-17T11:36:43.743Z,23.94
2018-09-17T11:41:41.256Z,23.72
2018-09-17T11:46:38.672Z,25.34
2018-09-17T11:51:36.114Z,25.29
2018-09-17T11:56:33.524Z,25.04
2018-09-17T12:01:36.652Z,25.49
2018-09-17T12:06:39.600Z,24.46
2018-09-17T12:11:37.055Z,25.53
2018-09-17T12:16:34.487Z,24.73
2018-09-17T12:21:32.046Z,25.61
2018-09-17T12:26:29.444Z,26.01
2018-09-17T12:31:26.867Z,26.61
2018-09-17T12:36:24.278Z,26.96
2018-09-17T12:41:21.797Z,25.41
2018-09-17T12:46:19.215Z,26.38
2018-09-17T12:51:16.635Z,26.50
2018-09-17T12:56:14.046Z,26.85
2018-09-17T13:01:11.446Z,26.02
2018-09-17T13:06:08.856Z,25.71
2018-09-17T13:11:06.370Z,26.27
2018-09-17T13:16:03.841Z,25.64
2018-09-17T13:21:01.679Z,25.91
2018-09-17T13:25:59.375Z,26.80
2018-09-17T13:30:56.804Z,27.38
2018-09-17T13:35:54.217Z,26.98
2018-09-17T13:40:51.662Z,26.48
2018-09-17T13:45:49.074Z,26.62
2018-09-17T13:50:46.500Z,27.02
2018-09-17T13:55:43.936Z,26.52
2018-09-17T14:00:41.395Z,27.17
2018-09-17T14:05:38.842Z,26.81
2018-09-17T14:10:36.315Z,26.29
2018-09-17T14:15:33.723Z,27.30
2018-09-17T14:20:32.846Z,27.05
2018-09-17T14:25:30.258Z,26.68
2018-09-17T14:30:27.715Z,27.33
2018-09-17T14:35:25.241Z,26.92
2018-09-17T14:40:22.626Z,27.20
2018-09-17T14:45:20.180Z,27.30
2018-09-17T14:50:17.562Z,27.32
2018-09-17T14:55:14.955Z,26.69
2018-09-17T15:00:12.373Z,26.83
2018-09-17T15:05:09.844Z,27.20
2018-09-17T15:10:08.428Z,27.31
2018-09-17T15:15:05.914Z,27.42
2018-09-17T15:20:04.335Z,26.80
2018-09-17T15:25:01.789Z,26.72
2018-09-17T15:29:59.204Z,26.76
2018-09-17T15:34:56.590Z,26.97
2018-09-17T15:40:00.158Z,27.04
2018-09-17T15:44:57.591Z,26.90
2018-09-17T15:49:55.005Z,26.67
2018-09-17T15:54:52.418Z,26.54
2018-09-17T15:59:49.825Z,26.36
2018-09-17T16:04:47.230Z,26.24
2018-09-17T16:09:51.228Z,26.03
2018-09-17T16:14:48.656Z,25.92
2018-09-17T16:19:46.099Z,25.88
2018-09-17T16:24:43.512Z,25.69
2018-09-17T16:29:41.019Z,25.57
2018-09-17T16:34:38.560Z,25.51
2018-09-17T16:39:42.240Z,25.34
2018-09-17T16:44:39.720Z,25.30
2018-09-17T16:49:37.126Z,25.05
2018-09-17T16:54:34.539Z,24.81
2018-09-17T16:59:31.963Z,24.44
2018-09-17T17:04:30.426Z,24.08
2018-09-17T17:09:45.995Z,23.67
2018-09-17T17:14:44.130Z,23.20
2018-09-17T17:19:41.562Z,22.77
2018-09-17T17:24:38.977Z,21.99
2018-09-17T17:29:36.419Z,21.61
2018-09-17T17:34:33.811Z,20.99
2018-09-17T17:39:41.861Z,20.51
2018-09-17T17:44:40.277Z,20.14
2018-09-17T17:49:37.659Z,19.83
2018-09-17T17:54:35.113Z,19.54
2018-09-17T17:59:32.446Z,19.33
2018-09-17T18:04:31.020Z,19.03
2018-09-17T18:09:33.136Z,18.73
2018-09-17T18:14:30.568Z,18.56
2018-09-17T18:19:27.968Z,18.26
2018-09-17T18:24:25.350Z,18.20
2018-09-17T18:29:22.716Z,18.02
2018-09-17T18:34:20.123Z,17.80
2018-09-17T18:39:17.555Z,17.65
2018-09-17T18:44:14.918Z,17.41
2018-09-17T18:49:12.263Z,17.27
2018-09-17T18:54:16.475Z,17.15
2018-09-17T18:59:13.882Z,17.02
2018-09-17T19:04:13.405Z,17.02
2018-09-17T19:09:11.835Z,16.78
2018-09-17T19:14:14.938Z,16.66
2018-09-17T19:19:12.448Z,16.75
2018-09-17T19:24:09.839Z,17.19
2018-09-17T19:29:13.117Z,16.65
2018-09-17T19:34:11.370Z,16.41
2018-09-17T19:39:15.119Z,16.24
2018-09-17T19:44:12.930Z,16.16
2018-09-17T19:49:10.927Z,16.02
2018-09-17T19:54:08.377Z,15.90
2018-09-17T19:59:11.747Z,15.81
2018-09-17T20:04:15.427Z,15.76
2018-09-17T20:09:13.407Z,15.60
2018-09-17T20:14:10.811Z,15.52
2018-09-17T20:19:08.198Z,15.45
2018-09-17T20:24:05.610Z,15.30
2018-09-17T20:29:03.017Z,15.23
2018-09-17T20:34:00.407Z,15.15
2018-09-17T20:38:57.776Z,15.09
2018-09-17T20:43:56.165Z,15.08
2018-09-17T20:48:53.642Z,14.95
2018-09-17T20:53:51.059Z,14.88
2018-09-17T20:58:48.468Z,14.82
2018-09-17T21:03:45.952Z,15.35
2018-09-17T21:08:43.367Z,15.05
2018-09-17T21:13:40.823Z,14.97
2018-09-17T21:18:38.275Z,15.06
2018-09-17T21:23:35.743Z,15.34
2018-09-17T21:28:33.143Z,15.45
2018-09-17T21:33:30.515Z,15.66
2018-09-17T21:38:27.963Z,15.98
2018-09-17T21:43:25.387Z,16.30
2018-09-17T21:48:22.769Z,16.41
2018-09-17T21:53:20.194Z,16.42
2018-09-17T21:58:17.571Z,16.47
2018-09-17T22:03:14.979Z,16.42
2018-09-17T22:08:12.422Z,16.41
2018-09-17T22:13:09.847Z,16.31
2018-09-17T22:18:07.255Z,16.18
2018-09-17T22:23:04.699Z,15.98
2018-09-17T22:28:02.518Z,15.98
2018-09-17T22:32:59.903Z,15.96
2018-09-17T22:37:57.297Z,15.80
2018-09-17T22:42:55.702Z,15.72
2018-09-17T22:47:53.094Z,15.62
2018-09-17T22:52:50.507Z,15.48
2018-09-17T22:57:47.944Z,15.58
2018-09-17T23:02:46.437Z,15.48
2018-09-17T23:07:43.823Z,15.55
2018-09-17T23:12:41.293Z,15.35
2018-09-17T23:17:38.676Z,15.28
2018-09-17T23:22:37.043Z,15.27
2018-09-17T23:27:34.419Z,15.12
2018-09-17T23:32:31.855Z,15.18
2018-09-17T23:37:29.251Z,15.25
2018-09-17T23:42:26.746Z,15.34
2018-09-17T23:47:24.171Z,15.12
2018-09-17T23:52:21.650Z,14.84
2018-09-17T23:57:19.039Z,14.68
